Time;durP1;ratioP1;P1;durP2;ratioP2;P2;SDS_P1;SDS_P2;PMS_P1;PMS_P2;Temp;Humidity;BMP_temperature;BMP_pressure;BME280_temperature;BME280_humidity;BME280_pressure;Samples;Min_cycle;Max_cycle;Signal;HPM_P1;HPM_P2
2023/05/11 00:00:11;;;;;;;21.88;12.68;;;;;;;;;;5123541;27;20130;-56
2023/05/11 00:02:37;;;;;;;21.40;12.18;;;;;;;;;;5124331;27;20051;-51
2023/05/11 00:05:04;;;;;;;22.23;13.13;;;;;;;;;;5125039;27;20043;-55
2023/05/11 00:07:31;;;;;;;22.02;12.93;;;;;;;;;;5123456;27;20114;-56
2023/05/11 00:09:57;;;;;;;27.35;14.73;;;;;;;;;;5124647;27;20047;-56
2023/05/11 00:12:24;;;;;;;30.08;14.35;;;;;;;;;;5112220;27;20048;-51
2023/05/11 00:14:50;;;;;;;26.13;13.85;;;;;;;;;;5108299;27;20055;-53
2023/05/11 00:17:18;;;;;;;27.65;14.70;;;;;;;;;;5123330;27;20085;-54
2023/05/11 00:19:44;;;;;;;25.20;13.65;;;;;;;;;;5123397;27;20059;-52
2023/05/11 00:22:11;;;;;;;27.17;14.18;;;;;;;;;;5123101;27;20083;-54
2023/05/11 00:24:38;;;;;;;25.13;13.48;;;;;;;;;;5117556;27;20287;-52
2023/05/11 00:27:04;;;;;;;26.13;14.80;;;;;;;;;;5120217;27;20647;-54
2023/05/11 00:29:31;;;;;;;32.63;15.05;;;;;;;;;;5122987;27;20109;-53
2023/05/11 00:31:57;;;;;;;26.90;15.02;;;;;;;;;;5121417;27;20146;-56
2023/05/11 00:34:24;;;;;;;31.00;15.38;;;;;;;;;;5113149;27;20183;-51
2023/05/11 00:36:50;;;;;;;25.98;14.45;;;;;;;;;;5118084;27;20536;-53
2023/05/11 00:39:17;;;;;;;28.85;15.18;;;;;;;;;;5111753;27;20131;-53
2023/05/11 00:41:43;;;;;;;30.17;15.70;;;;;;;;;;5112751;27;20051;-55
2023/05/11 00:44:09;;;;;;;28.58;14.25;;;;;;;;;;5122445;27;20051;-53
2023/05/11 00:46:36;;;;;;;32.35;15.07;;;;;;;;;;5114555;27;20050;-52
2023/05/11 00:49:02;;;;;;;33.10;16.17;;;;;;;;;;5123468;27;20062;-53
2023/05/11 00:51:30;;;;;;;30.67;15.15;;;;;;;;;;5122570;27;20051;-54
2023/05/11 00:53:57;;;;;;;32.90;15.10;;;;;;;;;;5123806;27;20044;-52
2023/05/11 00:56:24;;;;;;;35.53;16.75;;;;;;;;;;5122176;27;20540;-52
2023/05/11 00:58:51;;;;;;;34.95;15.73;;;;;;;;;;5122058;27;20105;-54
2023/05/11 01:01:17;;;;;;;28.70;15.80;;;;;;;;;;5122992;27;20553;-53
2023/05/11 01:03:45;;;;;;;32.72;15.85;;;;;;;;;;5121416;27;20059;-51
2023/05/11 01:06:31;;;;;;;34.25;15.98;;;;;;;;;;5123751;27;20186;-52
2023/05/11 01:09:02;;;;;;;29.05;13.93;;;;;;;;;;5122907;27;20086;-52
2023/05/11 01:11:50;;;;;;;32.05;15.85;;;;;;;;;;5123476;27;20131;-55
2023/05/11 01:14:22;;;;;;;32.13;15.80;;;;;;;;;;5121658;27;20131;-53
2023/05/11 01:16:54;;;;;;;33.17;15.07;;;;;;;;;;5123082;27;20059;-51
2023/05/11 01:19:24;;;;;;;30.75;15.20;;;;;;;;;;5122062;27;20511;-56
2023/05/11 01:21:51;;;;;;;29.58;14.55;;;;;;;;;;5122701;27;20181;-53
2023/05/11 01:24:20;;;;;;;31.48;14.93;;;;;;;;;;5120164;27;20060;-52
2023/05/11 01:26:49;;;;;;;34.13;15.40;;;;;;;;;;5122916;27;20199;-55
2023/05/11 01:29:35;;;;;;;29.88;14.77;;;;;;;;;;5107445;27;20055;-54
2023/05/11 01:32:01;;;;;;;;;;;;;;;;;;5104412;27;20062;-56
2023/05/11 01:34:30;;;;;;;31.25;14.48;;;;;;;;;;5122108;27;47122;-55
2023/05/11 01:36:59;;;;;;;32.03;14.45;;;;;;;;;;5122536;27;20062;-56
2023/05/11 01:39:34;;;;;;;29.33;14.38;;;;;;;;;;5122321;27;20059;-54
2023/05/11 01:42:04;;;;;;;35.13;15.73;;;;;;;;;;5122629;27;20047;-53
2023/05/11 01:44:32;;;;;;;37.05;17.05;;;;;;;;;;5119313;27;20052;-55
2023/05/11 01:46:59;;;;;;;32.33;16.27;;;;;;;;;;5122982;27;20059;-53
2023/05/11 01:49:26;;;;;;;36.70;17.50;;;;;;;;;;5127262;27;20499;-52
2023/05/11 01:51:53;;;;;;;33.20;15.80;;;;;;;;;;5126310;27;20066;-52
2023/05/11 01:54:20;;;;;;;27.30;14.50;;;;;;;;;;5122826;27;20047;-50
2023/05/11 01:56:48;;;;;;;31.17;15.43;;;;;;;;;;5126205;27;20052;-54
2023/05/11 01:59:16;;;;;;;34.97;15.30;;;;;;;;;;5126062;27;20548;-55
2023/05/11 02:01:42;;;;;;;36.25;15.98;;;;;;;;;;5126066;27;20079;-57
2023/05/11 02:04:09;;;;;;;48.42;17.45;;;;;;;;;;5124364;27;20524;-52
2023/05/11 02:06:37;;;;;;;32.42;16.52;;;;;;;;;;5126125;27;20469;-52
2023/05/11 02:09:04;;;;;;;33.22;16.38;;;;;;;;;;5123921;27;20151;-54
2023/05/11 02:11:31;;;;;;;32.15;16.45;;;;;;;;;;5125228;27;20058;-52
2023/05/11 02:13:57;;;;;;;33.45;15.55;;;;;;;;;;5125045;27;20135;-55
2023/05/11 02:16:26;;;;;;;32.13;15.07;;;;;;;;;;5127021;27;20060;-53
2023/05/11 02:18:53;;;;;;;32.72;14.50;;;;;;;;;;5125383;27;20056;-54
2023/05/11 02:21:20;;;;;;;34.78;15.73;;;;;;;;;;5127079;27;20044;-56
2023/05/11 02:23:47;;;;;;;36.85;17.10;;;;;;;;;;5123856;27;20051;-53
2023/05/11 02:26:14;;;;;;;37.47;15.90;;;;;;;;;;5115169;27;20090;-52
2023/05/11 02:28:41;;;;;;;38.22;17.55;;;;;;;;;;5120119;27;20051;-55
2023/05/11 02:31:09;;;;;;;33.90;17.33;;;;;;;;;;5126226;27;20081;-51
2023/05/11 02:33:39;;;;;;;39.67;16.85;;;;;;;;;;5124560;27;20093;-56
2023/05/11 02:36:07;;;;;;;41.25;16.88;;;;;;;;;;5125673;27;20249;-57
2023/05/11 02:38:34;;;;;;;33.40;16.05;;;;;;;;;;5122382;27;20077;-53
2023/05/11 02:41:06;;;;;;;39.72;17.75;;;;;;;;;;5125160;27;20048;-51
2023/05/11 02:43:34;;;;;;;40.80;18.35;;;;;;;;;;5125361;27;20051;-56
2023/05/11 02:46:05;;;;;;;35.42;17.17;;;;;;;;;;5124993;27;20047;-56
2023/05/11 02:48:35;;;;;;;40.28;17.73;;;;;;;;;;5124664;27;20052;-54
2023/05/11 02:51:05;;;;;;;44.38;17.90;;;;;;;;;;5125837;27;20108;-55
2023/05/11 02:53:31;;;;;;;38.47;17.55;;;;;;;;;;5120065;27;20517;-54
2023/05/11 02:55:59;;;;;;;40.33;17.95;;;;;;;;;;5124878;27;20052;-55
2023/05/11 02:58:26;;;;;;;39.25;17.05;;;;;;;;;;5125660;27;20056;-56
2023/05/11 03:00:52;;;;;;;37.45;16.70;;;;;;;;;;5123526;27;20122;-54
2023/05/11 03:03:19;;;;;;;43.63;17.88;;;;;;;;;;5123616;27;20051;-54
2023/05/11 03:05:45;;;;;;;40.85;17.83;;;;;;;;;;5124402;27;20052;-52
2023/05/11 03:08:11;;;;;;;46.03;18.50;;;;;;;;;;5123892;27;20055;-56
2023/05/11 03:10:38;;;;;;;41.42;17.45;;;;;;;;;;5124974;27;20052;-54
2023/05/11 03:13:06;;;;;;;39.17;17.38;;;;;;;;;;5124765;27;20056;-53
2023/05/11 03:15:32;;;;;;;44.47;19.05;;;;;;;;;;5123926;27;20055;-54
2023/05/11 03:17:59;;;;;;;40.50;19.48;;;;;;;;;;5124747;27;20059;-53
2023/05/11 03:20:26;;;;;;;40.78;17.38;;;;;;;;;;5123295;27;20052;-54
2023/05/11 03:22:54;;;;;;;42.42;17.83;;;;;;;;;;5123940;27;20510;-57
2023/05/11 03:25:22;;;;;;;39.97;18.08;;;;;;;;;;5123923;27;20052;-54
2023/05/11 03:27:49;;;;;;;37.00;16.83;;;;;;;;;;5125469;27;20047;-55
2023/05/11 03:30:15;;;;;;;37.60;16.40;;;;;;;;;;5124676;27;20428;-54
2023/05/11 03:32:42;;;;;;;39.78;18.02;;;;;;;;;;5124779;27;20583;-54
2023/05/11 03:35:09;;;;;;;36.80;17.90;;;;;;;;;;5124352;27;20047;-56
2023/05/11 03:37:36;;;;;;;42.63;17.73;;;;;;;;;;5124449;27;20082;-56
2023/05/11 03:40:02;;;;;;;45.60;18.75;;;;;;;;;;5123231;27;20052;-56
2023/05/11 03:42:29;;;;;;;43.80;18.25;;;;;;;;;;5124615;27;20055;-55
2023/05/11 03:44:58;;;;;;;47.97;20.98;;;;;;;;;;5125482;27;20059;-55
2023/05/11 03:47:25;;;;;;;39.92;18.67;;;;;;;;;;5125819;27;20146;-51
2023/05/11 03:49:52;;;;;;;45.42;18.27;;;;;;;;;;5124253;27;20059;-55
2023/05/11 03:52:18;;;;;;;44.33;19.80;;;;;;;;;;5109594;27;20047;-54
2023/05/11 03:54:45;;;;;;;44.00;19.25;;;;;;;;;;5117038;27;20135;-52
2023/05/11 03:57:13;;;;;;;40.17;18.75;;;;;;;;;;5124463;27;20536;-54
2023/05/11 03:59:39;;;;;;;46.08;20.20;;;;;;;;;;5123760;27;20047;-54
2023/05/11 04:02:06;;;;;;;54.33;18.23;;;;;;;;;;5124436;27;20059;-54
2023/05/11 04:04:33;;;;;;;40.78;18.45;;;;;;;;;;5122473;27;20505;-56
2023/05/11 04:06:59;;;;;;;45.60;18.10;;;;;;;;;;5123851;27;20051;-56
2023/05/11 04:09:26;;;;;;;48.20;18.98;;;;;;;;;;5124950;27;20052;-55
2023/05/11 04:11:52;;;;;;;42.20;18.15;;;;;;;;;;5123985;27;20053;-54
2023/05/11 04:14:19;;;;;;;44.50;18.88;;;;;;;;;;5122881;27;20571;-55
2023/05/11 04:16:46;;;;;;;46.13;18.23;;;;;;;;;;5103615;27;20052;-53
2023/05/11 04:19:12;;;;;;;41.97;17.92;;;;;;;;;;5120663;27;20056;-51
2023/05/11 04:21:38;;;;;;;35.47;16.13;;;;;;;;;;5123166;27;20645;-55
2023/05/11 04:24:05;;;;;;;31.42;15.68;;;;;;;;;;5123559;27;20081;-53
2023/05/11 04:26:31;;;;;;;36.80;16.20;;;;;;;;;;5124610;27;20139;-51
2023/05/11 04:28:58;;;;;;;38.00;16.33;;;;;;;;;;5123370;27;20395;-57
2023/05/11 04:31:24;;;;;;;41.85;17.90;;;;;;;;;;5124595;27;20055;-52
2023/05/11 04:33:50;;;;;;;47.85;17.25;;;;;;;;;;5123305;27;20055;-51
2023/05/11 04:36:17;;;;;;;45.88;18.23;;;;;;;;;;5123502;27;20522;-56
2023/05/11 04:38:43;;;;;;;45.88;17.83;;;;;;;;;;5120263;27;20052;-53
2023/05/11 04:41:09;;;;;;;45.05;17.65;;;;;;;;;;5104226;27;20120;-52
2023/05/11 04:43:36;;;;;;;45.55;18.38;;;;;;;;;;5105792;27;20056;-53
2023/05/11 04:46:02;;;;;;;44.13;16.95;;;;;;;;;;5123563;27;20134;-53
2023/05/11 04:48:28;;;;;;;42.28;17.45;;;;;;;;;;5123909;27;20121;-53
2023/05/11 04:50:55;;;;;;;47.72;18.42;;;;;;;;;;5124012;27;20048;-57
2023/05/11 04:53:21;;;;;;;39.70;17.95;;;;;;;;;;5124425;27;20551;-54
2023/05/11 04:55:48;;;;;;;34.85;16.00;;;;;;;;;;5123129;27;20055;-55
2023/05/11 04:58:14;;;;;;;43.80;17.48;;;;;;;;;;5123956;27;20192;-56
2023/05/11 05:00:41;;;;;;;45.53;18.13;;;;;;;;;;5112486;27;20055;-56
2023/05/11 05:03:07;;;;;;;38.60;16.40;;;;;;;;;;5124057;27;20047;-54
2023/05/11 05:05:34;;;;;;;45.42;17.83;;;;;;;;;;5124701;27;20173;-54
2023/05/11 05:08:00;;;;;;;44.28;18.25;;;;;;;;;;5124462;27;20062;-52
2023/05/11 05:10:26;;;;;;;40.83;17.27;;;;;;;;;;5122621;27;20121;-55
2023/05/11 05:12:53;;;;;;;39.53;16.52;;;;;;;;;;5118969;27;20419;-54
2023/05/11 05:15:20;;;;;;;41.78;17.60;;;;;;;;;;5104034;27;20060;-55
2023/05/11 05:17:46;;;;;;;36.28;17.30;;;;;;;;;;5104440;27;20110;-51
2023/05/11 05:20:12;;;;;;;39.08;16.45;;;;;;;;;;5107557;27;20128;-57
2023/05/11 05:22:39;;;;;;;36.65;16.98;;;;;;;;;;5126627;27;20055;-55
2023/05/11 05:25:05;;;;;;;36.20;16.20;;;;;;;;;;5127589;27;20047;-53
2023/05/11 05:27:32;;;;;;;39.55;15.82;;;;;;;;;;5122190;27;20924;-54
2023/05/11 05:30:00;;;;;;;32.45;16.38;;;;;;;;;;5121580;27;20060;-51
2023/05/11 05:32:26;;;;;;;39.33;17.33;;;;;;;;;;5126858;27;20052;-53
2023/05/11 05:34:53;;;;;;;34.17;16.35;;;;;;;;;;5126590;27;20056;-55
2023/05/11 05:37:19;;;;;;;34.42;16.75;;;;;;;;;;5125965;27;20265;-54
2023/05/11 05:39:46;;;;;;;38.63;17.45;;;;;;;;;;5126215;27;20126;-53
2023/05/11 05:42:13;;;;;;;39.08;15.60;;;;;;;;;;5124288;27;20162;-56
2023/05/11 05:44:40;;;;;;;37.60;16.95;;;;;;;;;;5125069;27;20055;-56
2023/05/11 05:47:06;;;;;;;35.83;17.17;;;;;;;;;;5125504;27;20079;-54
2023/05/11 05:49:32;;;;;;;36.22;15.70;;;;;;;;;;5123489;27;20129;-57
2023/05/11 05:51:59;;;;;;;35.53;16.80;;;;;;;;;;5120990;27;20055;-56
2023/05/11 05:54:25;;;;;;;34.70;16.33;;;;;;;;;;5127153;27;20056;-56
2023/05/11 05:56:51;;;;;;;31.73;15.32;;;;;;;;;;5125603;27;20112;-56
2023/05/11 05:59:22;;;;;;;28.48;15.57;;;;;;;;;;5125579;27;20045;-54
2023/05/11 06:01:49;;;;;;;31.23;13.77;;;;;;;;;;5122718;27;20063;-55
2023/05/11 06:04:15;;;;;;;32.78;16.17;;;;;;;;;;5122576;27;20048;-54
2023/05/11 06:06:42;;;;;;;25.23;14.32;;;;;;;;;;5121788;27;20146;-54
2023/05/11 06:09:08;;;;;;;28.40;14.23;;;;;;;;;;5125330;27;20048;-54
2023/05/11 06:11:34;;;;;;;23.65;14.05;;;;;;;;;;5106034;27;20059;-56
2023/05/11 06:14:01;;;;;;;24.15;13.15;;;;;;;;;;5112687;27;20430;-52
2023/05/11 06:16:27;;;;;;;25.30;12.75;;;;;;;;;;5125866;27;20680;-54
2023/05/11 06:18:53;;;;;;;24.67;12.57;;;;;;;;;;5122908;27;20055;-56
2023/05/11 06:21:20;;;;;;;22.27;12.18;;;;;;;;;;5121259;27;20100;-51
2023/05/11 06:23:46;;;;;;;19.52;12.32;;;;;;;;;;5119605;27;20064;-52
2023/05/11 06:26:13;;;;;;;19.75;11.70;;;;;;;;;;5123688;27;20197;-55
2023/05/11 06:28:39;;;;;;;20.15;11.85;;;;;;;;;;5119892;27;20056;-51
2023/05/11 06:31:05;;;;;;;22.10;12.15;;;;;;;;;;5121142;27;20058;-57
2023/05/11 06:33:31;;;;;;;21.67;12.13;;;;;;;;;;5124123;27;20129;-54
2023/05/11 06:36:02;;;;;;;18.52;11.82;;;;;;;;;;5123585;27;20047;-54
2023/05/11 06:38:30;;;;;;;19.98;11.93;;;;;;;;;;5120907;27;20051;-53
2023/05/11 06:40:56;;;;;;;24.80;12.88;;;;;;;;;;5120259;27;20059;-53
2023/05/11 06:43:22;;;;;;;25.05;12.65;;;;;;;;;;5119175;27;20183;-52
2023/05/11 06:45:49;;;;;;;21.08;12.30;;;;;;;;;;5123815;27;20128;-55
2023/05/11 06:48:15;;;;;;;19.52;12.00;;;;;;;;;;5124039;27;20056;-56
2023/05/11 06:50:42;;;;;;;21.48;12.63;;;;;;;;;;5124795;27;20135;-52
2023/05/11 06:53:09;;;;;;;19.92;11.40;;;;;;;;;;5119788;27;20126;-54
2023/05/11 06:55:36;;;;;;;25.15;12.75;;;;;;;;;;5111236;27;20051;-54
2023/05/11 06:58:03;;;;;;;23.80;12.45;;;;;;;;;;5118187;27;20110;-55
2023/05/11 07:00:29;;;;;;;24.90;12.55;;;;;;;;;;5123340;27;20052;-52
2023/05/11 07:02:55;;;;;;;29.25;15.00;;;;;;;;;;5112131;27;20594;-56
2023/05/11 07:05:22;;;;;;;29.33;15.35;;;;;;;;;;5123792;27;20585;-53
2023/05/11 07:07:48;;;;;;;29.83;14.90;;;;;;;;;;5122395;27;20541;-53
2023/05/11 07:10:15;;;;;;;30.23;15.57;;;;;;;;;;5118726;27;20062;-55
2023/05/11 07:12:42;;;;;;;27.88;15.05;;;;;;;;;;5103958;27;20095;-56
2023/05/11 07:15:08;;;;;;;30.95;17.05;;;;;;;;;;5111092;27;21139;-54
2023/05/11 07:17:34;;;;;;;29.52;17.17;;;;;;;;;;5123110;27;20179;-52
2023/05/11 07:20:01;;;;;;;37.20;17.27;;;;;;;;;;5129194;27;20482;-53
2023/05/11 07:22:27;;;;;;;30.88;17.35;;;;;;;;;;5124389;27;20060;-57
2023/05/11 07:24:53;;;;;;;30.92;17.63;;;;;;;;;;5121638;27;20050;-54
2023/05/11 07:27:20;;;;;;;29.48;17.00;;;;;;;;;;5120307;27;20134;-55
2023/05/11 07:29:46;;;;;;;34.00;19.25;;;;;;;;;;5123910;27;20048;-57
2023/05/11 07:32:12;;;;;;;28.90;17.08;;;;;;;;;;5111838;27;20052;-57
2023/05/11 07:34:40;;;;;;;30.42;17.30;;;;;;;;;;5119757;27;20043;-51
2023/05/11 07:37:07;;;;;;;29.23;16.30;;;;;;;;;;5121691;27;20105;-54
2023/05/11 07:39:33;;;;;;;29.02;16.63;;;;;;;;;;5123698;27;20140;-51
2023/05/11 07:42:00;;;;;;;33.58;18.20;;;;;;;;;;5124446;27;20055;-55
2023/05/11 07:44:26;;;;;;;31.45;17.80;;;;;;;;;;5124725;27;20091;-55
2023/05/11 07:46:53;;;;;;;33.53;18.33;;;;;;;;;;5108905;27;20075;-56
2023/05/11 07:49:20;;;;;;;32.55;17.42;;;;;;;;;;5122055;27;20139;-52
2023/05/11 07:52:05;;;;;;;31.00;16.95;;;;;;;;;;5121935;27;20551;-54
2023/05/11 07:54:31;;;;;;;30.42;17.33;;;;;;;;;;5129987;27;20051;-54
2023/05/11 07:56:58;;;;;;;31.35;18.27;;;;;;;;;;5120591;27;20540;-57
2023/05/11 07:59:24;;;;;;;29.50;17.10;;;;;;;;;;5109714;27;20143;-55
2023/05/11 08:01:50;;;;;;;32.15;19.67;;;;;;;;;;5117098;27;20066;-56
2023/05/11 08:04:17;;;;;;;30.05;17.13;;;;;;;;;;5128911;27;20062;-53
2023/05/11 08:06:43;;;;;;;31.42;18.33;;;;;;;;;;5130990;27;20056;-55
2023/05/11 08:09:10;;;;;;;27.40;17.15;;;;;;;;;;5124281;27;20055;-54
2023/05/11 08:11:36;;;;;;;27.65;17.75;;;;;;;;;;5123330;27;20052;-56
2023/05/11 08:14:02;;;;;;;30.92;18.30;;;;;;;;;;5122190;27;20510;-55
2023/05/11 08:16:29;;;;;;;26.75;15.70;;;;;;;;;;5113616;27;20552;-55
2023/05/11 08:18:55;;;;;;;29.02;16.75;;;;;;;;;;5116008;27;20529;-56
2023/05/11 08:21:22;;;;;;;28.42;16.83;;;;;;;;;;5122884;27;20572;-56
2023/05/11 08:23:48;;;;;;;27.73;17.55;;;;;;;;;;5123001;27;20067;-54
2023/05/11 08:26:15;;;;;;;30.08;18.40;;;;;;;;;;5122054;27;20502;-53
2023/05/11 08:28:41;;;;;;;27.85;17.10;;;;;;;;;;5123970;27;20055;-57
2023/05/11 08:31:07;;;;;;;30.33;17.83;;;;;;;;;;5118459;27;20056;-56
2023/05/11 08:33:34;;;;;;;27.67;18.23;;;;;;;;;;5127210;27;20123;-56
2023/05/11 08:36:04;;;;;;;28.02;16.90;;;;;;;;;;5139246;27;20135;-52
2023/05/11 08:38:30;;;;;;;26.55;16.95;;;;;;;;;;5127970;27;20078;-51
2023/05/11 08:40:57;;;;;;;28.85;17.83;;;;;;;;;;5122632;27;20059;-53
2023/05/11 08:43:25;;;;;;;29.73;18.45;;;;;;;;;;5122139;27;20055;-57
2023/05/11 08:45:55;;;;;;;29.38;17.63;;;;;;;;;;5123156;27;20048;-56
2023/05/11 08:48:21;;;;;;;23.30;15.20;;;;;;;;;;5121354;27;20486;-54
2023/05/11 08:50:48;;;;;;;24.92;16.98;;;;;;;;;;5130558;27;20055;-56
2023/05/11 08:53:14;;;;;;;25.63;16.13;;;;;;;;;;5126167;27;20188;-57
2023/05/11 08:55:41;;;;;;;25.27;15.95;;;;;;;;;;5133803;27;20094;-55
2023/05/11 08:58:08;;;;;;;25.38;15.88;;;;;;;;;;5129778;27;20052;-56
2023/05/11 09:00:35;;;;;;;25.40;16.42;;;;;;;;;;5140490;27;20514;-54
2023/05/11 09:03:02;;;;;;;28.95;16.95;;;;;;;;;;5118730;27;20048;-53
2023/05/11 09:05:29;;;;;;;21.05;13.95;;;;;;;;;;5127221;27;20054;-56
2023/05/11 09:07:59;;;;;;;10.40;7.18;;;;;;;;;;5131295;27;20050;-41
2023/05/11 09:10:25;;;;;;;24.75;15.20;;;;;;;;;;5127504;27;20062;-55
2023/05/11 09:12:52;;;;;;;24.23;15.65;;;;;;;;;;5132520;27;20051;-55
2023/05/11 09:15:18;;;;;;;26.02;16.48;;;;;;;;;;5124879;27;20047;-54
2023/05/11 09:17:45;;;;;;;25.17;15.18;;;;;;;;;;5126287;27;20051;-54
2023/05/11 09:20:11;;;;;;;22.42;14.85;;;;;;;;;;5128972;27;20471;-54
2023/05/11 09:22:45;;;;;;;21.60;14.10;;;;;;;;;;5125235;27;20094;-53
2023/05/11 09:25:13;;;;;;;19.05;13.90;;;;;;;;;;5122946;27;20559;-54
2023/05/11 09:27:40;;;;;;;21.90;14.73;;;;;;;;;;5119195;27;20044;-56
2023/05/11 09:30:25;;;;;;;21.65;14.45;;;;;;;;;;5106056;27;20123;-54
2023/05/11 09:32:56;;;;;;;21.30;14.88;;;;;;;;;;5105691;27;20101;-55
2023/05/11 09:35:27;;;;;;;20.52;13.98;;;;;;;;;;5111049;27;20138;-54
2023/05/11 09:38:07;;;;;;;21.20;14.45;;;;;;;;;;5125042;27;20781;-56
2023/05/11 09:40:53;;;;;;;21.83;16.00;;;;;;;;;;5114986;27;20047;-53
2023/05/11 09:43:19;;;;;;;24.30;16.15;;;;;;;;;;5121548;27;20058;-53
2023/05/11 09:45:50;;;;;;;26.23;15.38;;;;;;;;;;5124849;27;20533;-53
2023/05/11 09:48:19;;;;;;;22.50;15.75;;;;;;;;;;5125624;27;20612;-53
2023/05/11 09:50:50;;;;;;;23.48;16.17;;;;;;;;;;5122891;27;20522;-54
2023/05/11 09:53:17;;;;;;;25.42;16.27;;;;;;;;;;5105435;27;20058;-57
2023/05/11 09:55:53;;;;;;;23.58;16.45;;;;;;;;;;5105067;27;20514;-56
2023/05/11 09:58:20;;;;;;;29.85;18.90;;;;;;;;;;5106029;27;20052;-53
2023/05/11 10:00:50;;;;;;;27.23;18.17;;;;;;;;;;5119286;27;20071;-51
2023/05/11 10:03:16;;;;;;;28.63;18.70;;;;;;;;;;5125461;27;20072;-54
2023/05/11 10:05:54;;;;;;;24.48;17.83;;;;;;;;;;5124626;27;20434;-56
2023/05/11 10:08:26;;;;;;;30.02;18.85;;;;;;;;;;5120291;27;20533;-53
2023/05/11 10:10:53;;;;;;;27.48;19.00;;;;;;;;;;5105484;27;20097;-54
2023/05/11 10:13:19;;;;;;;27.77;18.65;;;;;;;;;;5105532;27;20557;-53
2023/05/11 10:15:50;;;;;;;30.80;19.65;;;;;;;;;;5111331;27;20078;-53
2023/05/11 10:18:16;;;;;;;29.23;19.13;;;;;;;;;;5113136;27;20514;-52
2023/05/11 10:20:45;;;;;;;28.60;19.33;;;;;;;;;;5125380;27;20514;-51
2023/05/11 10:23:13;;;;;;;26.70;18.42;;;;;;;;;;5125551;27;20068;-56
2023/05/11 10:25:40;;;;;;;22.48;15.80;;;;;;;;;;5121005;27;20052;-52
2023/05/11 10:28:07;;;;;;;21.75;15.40;;;;;;;;;;5109108;27;20051;-55
2023/05/11 10:30:33;;;;;;;20.45;13.25;;;;;;;;;;5125892;27;20059;-56
2023/05/11 10:33:00;;;;;;;19.42;12.20;;;;;;;;;;5121204;27;20051;-55
2023/05/11 10:35:27;;;;;;;17.40;10.90;;;;;;;;;;5122090;27;20052;-51
2023/05/11 10:37:53;;;;;;;17.33;11.38;;;;;;;;;;5121482;27;20047;-52
2023/05/11 10:40:19;;;;;;;18.83;11.50;;;;;;;;;;5134317;27;20518;-57
2023/05/11 10:42:58;;;;;;;20.40;11.05;;;;;;;;;;5125207;27;20047;-56
2023/05/11 10:45:28;;;;;;;16.90;10.27;;;;;;;;;;5114396;27;20067;-55
2023/05/11 10:47:54;;;;;;;17.10;10.98;;;;;;;;;;5135719;27;20455;-55
2023/05/11 10:50:35;;;;;;;17.10;11.73;;;;;;;;;;5124255;27;20047;-54
2023/05/11 10:53:11;;;;;;;19.75;11.50;;;;;;;;;;5129714;27;20052;-56
2023/05/11 10:55:50;;;;;;;17.83;11.70;;;;;;;;;;5125096;27;20473;-53
2023/05/11 10:58:36;;;;;;;21.35;13.38;;;;;;;;;;5124510;27;20571;-56
2023/05/11 11:01:21;;;;;;;19.58;12.52;;;;;;;;;;5126215;27;20060;-56
2023/05/11 11:03:55;;;;;;;20.00;13.65;;;;;;;;;;5125785;27;20352;-57
2023/05/11 11:06:22;;;;;;;21.77;13.70;;;;;;;;;;5125021;27;20430;-56
2023/05/11 11:08:56;;;;;;;19.27;13.10;;;;;;;;;;5119568;27;20503;-51
2023/05/11 11:11:38;;;;;;;20.25;13.13;;;;;;;;;;5121006;27;20047;-58
2023/05/11 11:14:05;;;;;;;22.60;13.05;;;;;;;;;;5113542;27;20143;-55
2023/05/11 11:16:32;;;;;;;20.05;12.90;;;;;;;;;;5124656;27;20542;-56
2023/05/11 11:19:24;;;;;;;20.20;11.43;;;;;;;;;;5118872;27;20059;-53
2023/05/11 11:21:50;;;;;;;18.27;11.10;;;;;;;;;;5103321;27;20054;-57
2023/05/11 11:24:35;;;;;;;20.58;11.32;;;;;;;;;;5112461;27;20479;-55
2023/05/11 11:27:03;;;;;;;15.95;10.90;;;;;;;;;;5119399;27;20132;-56
2023/05/11 11:29:30;;;;;;;19.88;11.60;;;;;;;;;;5104436;27;20062;-56
2023/05/11 11:32:15;;;;;;;18.30;10.35;;;;;;;;;;5105323;27;20048;-54
2023/05/11 11:34:42;;;;;;;18.30;10.68;;;;;;;;;;5103860;27;20056;-52
2023/05/11 11:37:09;;;;;;;19.65;11.32;;;;;;;;;;5128849;27;20051;-55
2023/05/11 11:39:41;;;;;;;16.77;11.35;;;;;;;;;;5125869;27;20096;-53
2023/05/11 11:42:08;;;;;;;19.92;11.63;;;;;;;;;;5112900;27;20517;-54
2023/05/11 11:44:35;;;;;;;19.50;12.02;;;;;;;;;;5112683;27;20205;-54
2023/05/11 11:47:10;;;;;;;16.15;10.65;;;;;;;;;;5119965;27;20043;-51
2023/05/11 11:49:36;;;;;;;;;;;;;;;;;;5125553;27;20055;-56
2023/05/11 11:52:05;;;;;;;19.88;11.70;;;;;;;;;;5121969;27;44911;-52
2023/05/11 11:54:43;;;;;;;21.90;12.52;;;;;;;;;;5121795;27;20109;-55
2023/05/11 11:57:28;;;;;;;22.20;13.32;;;;;;;;;;5123956;27;20055;-54
2023/05/11 11:59:55;;;;;;;23.15;13.50;;;;;;;;;;5114171;27;20142;-57
2023/05/11 12:02:22;;;;;;;22.60;13.30;;;;;;;;;;5106325;27;20052;-53
2023/05/11 12:04:55;;;;;;;21.42;13.30;;;;;;;;;;5120651;27;20051;-57
2023/05/11 12:07:23;;;;;;;23.55;13.23;;;;;;;;;;5123179;27;20052;-54
2023/05/11 12:09:51;;;;;;;25.98;14.30;;;;;;;;;;5123690;27;20051;-54
2023/05/11 12:12:19;;;;;;;21.13;13.38;;;;;;;;;;5122271;27;20055;-54
2023/05/11 12:14:48;;;;;;;19.33;13.75;;;;;;;;;;5122365;27;20198;-55
2023/05/11 12:17:22;;;;;;;21.30;12.75;;;;;;;;;;5123823;27;20402;-56
2023/05/11 12:19:48;;;;;;;17.42;11.57;;;;;;;;;;5103598;28;20048;-55
2023/05/11 12:22:20;;;;;;;19.95;11.73;;;;;;;;;;5103616;28;20097;-56
2023/05/11 12:24:46;;;;;;;14.90;10.80;;;;;;;;;;5116812;27;20059;-52
2023/05/11 12:27:15;;;;;;;17.08;10.02;;;;;;;;;;5123274;27;20614;-52
2023/05/11 12:29:44;;;;;;;15.15;10.40;;;;;;;;;;5123489;27;20058;-53
2023/05/11 12:32:11;;;;;;;21.77;10.55;;;;;;;;;;5123476;27;20051;-53
2023/05/11 12:34:38;;;;;;;13.88;9.88;;;;;;;;;;5123006;27;20051;-53
2023/05/11 12:37:05;;;;;;;12.82;9.85;;;;;;;;;;5123611;27;20154;-54
2023/05/11 12:39:34;;;;;;;13.90;9.23;;;;;;;;;;5121147;27;20047;-53
2023/05/11 12:42:01;;;;;;;11.43;9.38;;;;;;;;;;5122858;27;20055;-57
2023/05/11 12:44:27;;;;;;;13.73;8.88;;;;;;;;;;5120668;27;20052;-54
2023/05/11 12:46:53;;;;;;;13.57;8.68;;;;;;;;;;5121870;27;20052;-51
2023/05/11 12:49:23;;;;;;;11.77;9.40;;;;;;;;;;5123934;27;20040;-53
2023/05/11 12:51:51;;;;;;;11.38;9.07;;;;;;;;;;5123250;27;20502;-53
2023/05/11 12:54:28;;;;;;;13.90;8.52;;;;;;;;;;5124351;27;20044;-54
2023/05/11 12:56:55;;;;;;;11.48;8.45;;;;;;;;;;5121700;27;20051;-56
2023/05/11 12:59:24;;;;;;;11.65;8.43;;;;;;;;;;5119641;27;20050;-54
2023/05/11 13:01:50;;;;;;;11.25;8.30;;;;;;;;;;5122154;27;20159;-51
2023/05/11 13:04:17;;;;;;;11.88;8.38;;;;;;;;;;5125103;27;20059;-55
2023/05/11 13:06:44;;;;;;;10.95;8.13;;;;;;;;;;5128143;27;20044;-54
2023/05/11 13:09:20;;;;;;;10.23;6.93;;;;;;;;;;5103567;27;20059;-55
2023/05/11 13:11:46;;;;;;;6.38;5.20;;;;;;;;;;5110097;27;20115;-53
2023/05/11 13:14:16;;;;;;;5.68;4.05;;;;;;;;;;5122367;27;20059;-53
2023/05/11 13:16:52;;;;;;;6.28;3.88;;;;;;;;;;5120492;27;20048;-54
2023/05/11 13:19:26;;;;;;;4.72;3.80;;;;;;;;;;5122131;27;20059;-55
2023/05/11 13:21:53;;;;;;;5.77;4.57;;;;;;;;;;5121578;27;20171;-51
2023/05/11 13:24:20;;;;;;;6.82;4.75;;;;;;;;;;5122109;27;20071;-54
2023/05/11 13:26:46;;;;;;;5.78;4.32;;;;;;;;;;5121489;27;20052;-55
2023/05/11 13:29:12;;;;;;;3.47;3.08;;;;;;;;;;5121732;27;20056;-56
2023/05/11 13:31:46;;;;;;;3.25;2.95;;;;;;;;;;5120940;27;20457;-56
2023/05/11 13:34:13;;;;;;;2.60;2.30;;;;;;;;;;5120937;27;20528;-55
2023/05/11 13:36:39;;;;;;;3.08;2.38;;;;;;;;;;5120314;27;20052;-55
2023/05/11 13:39:06;;;;;;;3.10;2.38;;;;;;;;;;5125899;27;20534;-55
2023/05/11 13:41:32;;;;;;;5.60;2.67;;;;;;;;;;5125319;27;20539;-55
2023/05/11 13:43:58;;;;;;;4.10;2.88;;;;;;;;;;5130660;27;20051;-56
2023/05/11 13:46:25;;;;;;;3.70;2.88;;;;;;;;;;5127756;27;20153;-52
2023/05/11 13:48:53;;;;;;;3.92;3.20;;;;;;;;;;5135706;27;20059;-54
2023/05/11 13:51:20;;;;;;;3.63;3.03;;;;;;;;;;5124966;27;20143;-55
2023/05/11 13:53:46;;;;;;;6.40;3.83;;;;;;;;;;5125779;27;20058;-53
2023/05/11 13:56:13;;;;;;;3.75;3.35;;;;;;;;;;5124782;27;20134;-51
2023/05/11 13:58:39;;;;;;;4.32;3.42;;;;;;;;;;5125688;27;20899;-56
2023/05/11 14:01:05;;;;;;;6.18;4.40;;;;;;;;;;5126152;27;20942;-51
2023/05/11 14:03:34;;;;;;;4.72;4.05;;;;;;;;;;5126245;27;20499;-54
2023/05/11 14:06:01;;;;;;;5.63;4.55;;;;;;;;;;5125838;27;20114;-57
2023/05/11 14:08:27;;;;;;;5.53;4.63;;;;;;;;;;5119513;27;20051;-56
2023/05/11 14:10:53;;;;;;;7.32;5.30;;;;;;;;;;5126336;27;20074;-51
2023/05/11 14:13:20;;;;;;;5.60;4.57;;;;;;;;;;5125922;27;20510;-56
2023/05/11 14:15:46;;;;;;;8.27;6.03;;;;;;;;;;5125947;27;20055;-53
2023/05/11 14:18:12;;;;;;;5.32;4.82;;;;;;;;;;5125351;27;20060;-53
2023/05/11 14:20:42;;;;;;;7.65;5.15;;;;;;;;;;5125311;27;20442;-56
2023/05/11 14:23:08;;;;;;;5.38;4.88;;;;;;;;;;5125888;27;20059;-57
2023/05/11 14:25:35;;;;;;;6.18;4.75;;;;;;;;;;5126161;27;20509;-54